Time;durP1;ratioP1;P1;durP2;ratioP2;P2;SDS_P1;SDS_P2;PMS_P1;PMS_P2;Temp;Humidity;BMP_temperature;BMP_pressure;BME280_temperature;BME280_humidity;BME280_pressure;Samples;Min_cycle;Max_cycle;Signal;HPM_P1;HPM_P2
2022/08/01 00:02:15;;;;;;;1999.90;999.90;;;19.50;99.90;;;;;;5037781;28;20515;-71
2022/08/01 00:04:41;;;;;;;1999.90;999.90;;;19.50;99.90;;;;;;5034236;28;20533;-71
2022/08/01 00:07:09;;;;;;;1999.90;999.90;;;19.60;99.90;;;;;;5036327;28;20871;-71
2022/08/01 00:09:36;;;;;;;1999.90;999.90;;;19.70;99.90;;;;;;5033797;28;20540;-71
2022/08/01 00:12:04;;;;;;;1999.90;999.90;;;19.80;99.90;;;;;;5032308;28;20495;-71
2022/08/01 00:14:31;;;;;;;1999.90;999.90;;;19.80;99.90;;;;;;5034983;28;20470;-71
2022/08/01 00:16:58;;;;;;;1999.90;999.90;;;19.80;99.90;;;;;;5038887;28;20486;-71
2022/08/01 00:19:24;;;;;;;1999.90;999.90;;;19.90;99.90;;;;;;5038346;28;20999;-71
2022/08/01 00:21:51;;;;;;;1999.90;999.90;;;20.00;99.90;;;;;;5040516;28;20458;-72
2022/08/01 00:24:19;;;;;;;1999.90;999.90;;;19.80;99.90;;;;;;5037962;28;20545;-71
2022/08/01 00:26:45;;;;;;;1999.90;999.90;;;19.80;99.90;;;;;;5035437;28;21079;-71
2022/08/01 00:29:12;;;;;;;1999.90;999.90;;;19.90;99.90;;;;;;5035024;28;20486;-71
2022/08/01 00:31:39;;;;;;;1999.90;999.90;;;20.00;99.90;;;;;;5037724;28;20520;-72
2022/08/01 00:34:05;;;;;;;1999.90;999.90;;;20.00;99.90;;;;;;5035720;28;20495;-71
2022/08/01 00:36:32;;;;;;;1999.90;999.90;;;20.10;99.90;;;;;;5029875;28;20514;-71
2022/08/01 00:38:59;;;;;;;1999.90;999.90;;;20.00;99.90;;;;;;5035123;28;20509;-71
2022/08/01 00:41:26;;;;;;;1999.90;999.90;;;19.90;99.90;;;;;;5029233;28;20975;-70
2022/08/01 00:43:54;;;;;;;1999.90;999.90;;;20.00;99.90;;;;;;5027142;28;20597;-71
2022/08/01 00:46:20;;;;;;;1999.90;999.90;;;20.00;99.90;;;;;;5034319;28;20506;-71
2022/08/01 00:48:47;;;;;;;1999.90;999.90;;;20.00;99.90;;;;;;5030122;28;20967;-71
2022/08/01 00:51:13;;;;;;;1999.90;999.90;;;20.00;99.90;;;;;;5030059;28;20548;-71
2022/08/01 00:53:41;;;;;;;1999.90;999.90;;;20.10;99.90;;;;;;5033808;28;20952;-71
2022/08/01 00:56:08;;;;;;;1999.90;999.90;;;20.10;99.90;;;;;;5029389;28;20463;-71
2022/08/01 00:58:36;;;;;;;1999.90;999.90;;;20.20;99.90;;;;;;5031903;28;20556;-71
2022/08/01 01:01:03;;;;;;;1999.90;999.90;;;20.10;99.90;;;;;;5027666;28;20842;-71
2022/08/01 01:03:31;;;;;;;1999.90;999.90;;;20.10;99.90;;;;;;5029988;28;21189;-71
2022/08/01 01:06:23;;;;;;;1999.90;999.90;;;20.10;99.90;;;;;;5031847;28;20541;-71
2022/08/01 01:08:57;;;;;;;1999.90;999.90;;;20.10;99.90;;;;;;5037032;28;20545;-71
2022/08/01 01:11:29;;;;;;;1999.90;999.90;;;20.10;99.90;;;;;;5033677;28;20451;-71
2022/08/01 01:14:05;;;;;;;1999.90;999.90;;;20.00;99.90;;;;;;5034635;28;20501;-71
2022/08/01 01:16:33;;;;;;;1999.90;999.90;;;19.80;99.90;;;;;;5029883;28;20555;-74
2022/08/01 01:19:04;;;;;;;1999.90;999.90;;;19.80;99.90;;;;;;5030439;28;20548;-74
2022/08/01 01:21:48;;;;;;;1999.90;999.90;;;19.70;99.90;;;;;;5029604;28;20478;-72
2022/08/01 01:24:28;;;;;;;1999.90;999.90;;;19.70;99.90;;;;;;5032750;28;20471;-71
2022/08/01 01:27:02;;;;;;;1999.90;999.90;;;19.70;99.90;;;;;;5031963;28;20991;-71
2022/08/01 01:29:36;;;;;;;1999.90;999.90;;;19.70;99.90;;;;;;5031181;28;20460;-71
2022/08/01 01:32:06;;;;;;;1999.90;999.90;;;19.80;99.90;;;;;;5035371;28;20482;-71
2022/08/01 01:34:38;;;;;;;1999.90;999.90;;;19.80;99.90;;;;;;5030234;28;20477;-71
2022/08/01 01:37:09;;;;;;;1999.90;999.90;;;19.80;99.90;;;;;;5035750;28;20486;-72
2022/08/01 01:39:38;;;;;;;1999.90;999.90;;;19.70;99.90;;;;;;5031493;28;20509;-71
2022/08/01 01:42:07;;;;;;;1999.90;999.90;;;19.70;99.90;;;;;;5030671;28;20463;-71
2022/08/01 01:44:36;;;;;;;1999.90;999.90;;;19.70;99.90;;;;;;5030723;28;20537;-71
2022/08/01 01:47:04;;;;;;;1999.90;999.90;;;19.70;99.90;;;;;;5033581;28;20544;-71
2022/08/01 01:49:32;;;;;;;1999.90;999.90;;;19.70;99.90;;;;;;5028164;28;20467;-71
2022/08/01 01:52:01;;;;;;;1999.90;999.90;;;19.70;99.90;;;;;;5031790;28;20459;-72
2022/08/01 01:54:32;;;;;;;1999.90;999.90;;;19.80;99.90;;;;;;5030065;28;20459;-71
2022/08/01 01:57:01;;;;;;;1999.90;999.90;;;19.70;99.90;;;;;;5031573;28;20889;-71
2022/08/01 01:59:31;;;;;;;1999.90;999.90;;;19.70;99.90;;;;;;5036148;28;20884;-70
2022/08/01 02:02:02;;;;;;;1999.90;999.90;;;19.70;99.90;;;;;;5032531;28;20529;-71
2022/08/01 02:04:29;;;;;;;1999.90;999.90;;;19.70;99.90;;;;;;5031757;28;20484;-70
2022/08/01 02:06:58;;;;;;;1999.90;999.90;;;19.80;99.90;;;;;;5029618;28;20483;-71
2022/08/01 02:09:27;;;;;;;1999.90;999.90;;;19.70;99.90;;;;;;5031916;28;20465;-71
2022/08/01 02:11:56;;;;;;;1999.90;999.90;;;19.70;99.90;;;;;;5032523;28;20460;-72
2022/08/01 02:14:24;;;;;;;1999.90;999.90;;;19.70;99.90;;;;;;5033509;28;20514;-71
2022/08/01 02:16:51;;;;;;;1999.90;999.90;;;19.80;99.90;;;;;;5030006;28;20487;-71
2022/08/01 02:19:20;;;;;;;1999.90;999.90;;;19.80;99.90;;;;;;5034287;28;20960;-70
2022/08/01 02:21:51;;;;;;;1999.90;999.90;;;19.80;99.90;;;;;;5031058;28;20467;-71
2022/08/01 02:24:29;;;;;;;1999.90;999.90;;;19.80;99.90;;;;;;5036415;28;20467;-71
2022/08/01 02:27:00;;;;;;;1999.90;999.90;;;19.80;99.90;;;;;;5030146;28;20549;-71
2022/08/01 02:29:33;;;;;;;1999.90;999.90;;;19.80;99.90;;;;;;5035648;28;20503;-71
2022/08/01 02:32:02;;;;;;;1999.90;999.90;;;19.90;99.90;;;;;;5031514;28;20464;-71
2022/08/01 02:34:32;;;;;;;1999.90;999.90;;;19.90;99.90;;;;;;5035198;28;20454;-71
2022/08/01 02:37:01;;;;;;;1999.90;999.90;;;19.90;99.90;;;;;;5030420;28;20510;-71
2022/08/01 02:39:30;;;;;;;1999.90;999.90;;;19.90;99.90;;;;;;5033045;28;20817;-71
2022/08/01 02:42:01;;;;;;;1999.90;999.90;;;19.90;99.90;;;;;;5031837;28;20518;-71
2022/08/01 02:44:31;;;;;;;1999.90;999.90;;;19.90;99.90;;;;;;5032042;28;20577;-71
2022/08/01 02:47:02;;;;;;;1999.90;999.90;;;19.90;99.90;;;;;;5031503;28;20491;-72
2022/08/01 02:49:32;;;;;;;1999.90;999.90;;;20.00;99.90;;;;;;5029024;28;20471;-72
2022/08/01 02:52:01;;;;;;;1999.90;999.90;;;20.00;99.90;;;;;;5031165;28;20964;-71
2022/08/01 02:54:31;;;;;;;1999.90;999.90;;;19.90;99.90;;;;;;5030309;28;20454;-71
2022/08/01 02:56:58;;;;;;;1999.90;999.90;;;19.90;99.90;;;;;;5031630;28;20564;-72
2022/08/01 02:59:27;;;;;;;1999.90;999.90;;;19.90;99.90;;;;;;5031286;28;20463;-71
2022/08/01 03:01:56;;;;;;;1999.90;999.90;;;20.00;99.90;;;;;;5032788;28;21187;-71
2022/08/01 03:04:23;;;;;;;1999.90;999.90;;;20.00;99.90;;;;;;5037837;28;20567;-70
2022/08/01 03:06:53;;;;;;;1999.90;999.90;;;20.00;99.90;;;;;;5030227;28;20487;-71
2022/08/01 03:09:21;;;;;;;1999.90;999.90;;;19.90;99.90;;;;;;5035023;28;21029;-70
2022/08/01 03:11:50;;;;;;;1999.90;999.90;;;19.90;99.90;;;;;;5030534;28;20459;-70
2022/08/01 03:14:17;;;;;;;1999.90;999.90;;;19.80;99.90;;;;;;5034219;28;20517;-69
2022/08/01 03:16:46;;;;;;;1999.90;999.90;;;19.80;99.90;;;;;;5035823;28;20941;-71
2022/08/01 03:19:16;;;;;;;1999.90;999.90;;;19.90;99.90;;;;;;5033018;28;20459;-71
2022/08/01 03:21:45;;;;;;;1999.90;999.90;;;19.80;99.90;;;;;;5034437;28;20462;-71
2022/08/01 03:24:14;;;;;;;1999.90;999.90;;;19.70;99.90;;;;;;5031774;28;20530;-71
2022/08/01 03:26:43;;;;;;;1999.90;999.90;;;19.70;99.90;;;;;;5033436;28;20540;-72
2022/08/01 03:29:14;;;;;;;1999.90;999.90;;;19.80;99.90;;;;;;5032060;28;20459;-71
2022/08/01 03:31:44;;;;;;;1999.90;999.90;;;19.90;99.90;;;;;;5032801;28;20600;-71
2022/08/01 03:34:11;;;;;;;1999.90;999.90;;;19.90;99.90;;;;;;5036808;28;20679;-71
2022/08/01 03:36:47;;;;;;;1999.90;999.90;;;19.90;99.90;;;;;;5034769;28;20533;-71
2022/08/01 03:39:16;;;;;;;1999.90;999.90;;;20.00;99.90;;;;;;5033235;28;20470;-71
2022/08/01 03:41:51;;;;;;;1999.90;999.90;;;20.00;99.90;;;;;;5030432;28;20549;-71
2022/08/01 03:44:23;;;;;;;1999.90;999.90;;;20.00;99.90;;;;;;5033335;28;20478;-71
2022/08/01 03:46:57;;;;;;;1999.90;999.90;;;19.90;99.90;;;;;;5032394;28;20486;-70
2022/08/01 03:49:27;;;;;;;1999.90;999.90;;;19.90;99.90;;;;;;5033326;28;20841;-72
2022/08/01 03:51:54;;;;;;;1999.90;999.90;;;19.90;99.90;;;;;;5034981;28;21040;-70
2022/08/01 03:54:25;;;;;;;1999.90;999.90;;;19.90;99.90;;;;;;5041615;28;20455;-73
2022/08/01 03:56:53;;;;;;;1999.90;999.90;;;19.90;99.90;;;;;;5030272;28;20479;-71
2022/08/01 03:59:21;;;;;;;1999.90;999.90;;;19.80;99.90;;;;;;5037793;28;20980;-71
2022/08/01 04:01:49;;;;;;;1999.90;999.90;;;19.90;99.90;;;;;;5032677;28;20467;-70
2022/08/01 04:04:15;;;;;;;1999.90;999.90;;;19.80;99.90;;;;;;5034526;28;21063;-70
2022/08/01 04:06:44;;;;;;;1999.90;999.90;;;19.70;99.90;;;;;;5031226;28;21073;-71
2022/08/01 04:09:11;;;;;;;1999.90;999.90;;;19.80;99.90;;;;;;5034012;28;20887;-71
2022/08/01 04:11:39;;;;;;;1999.90;999.90;;;19.80;99.90;;;;;;5033671;28;20458;-70
2022/08/01 04:14:06;;;;;;;1999.90;999.90;;;19.80;99.90;;;;;;5033194;28;20507;-71
2022/08/01 04:16:32;;;;;;;1999.90;999.90;;;19.80;99.90;;;;;;5034682;28;20482;-71
2022/08/01 04:18:59;;;;;;;1999.90;999.90;;;19.80;99.90;;;;;;5031896;28;20885;-71
2022/08/01 04:21:29;;;;;;;1999.90;999.90;;;19.80;99.90;;;;;;5034338;28;20454;-71
2022/08/01 04:23:59;;;;;;;1999.90;999.90;;;19.70;99.90;;;;;;5031865;28;20514;-70
2022/08/01 04:26:27;;;;;;;1999.90;999.90;;;19.70;99.90;;;;;;5035476;28;20458;-70
2022/08/01 04:28:56;;;;;;;1999.90;999.90;;;19.60;99.90;;;;;;5033966;28;20516;-70
2022/08/01 04:31:26;;;;;;;1999.90;999.90;;;19.60;99.90;;;;;;5039452;28;20511;-71
2022/08/01 04:33:55;;;;;;;1999.90;999.90;;;19.60;99.90;;;;;;5032314;28;20470;-71
2022/08/01 04:36:25;;;;;;;1999.90;999.90;;;19.50;99.90;;;;;;5035322;28;20536;-71
2022/08/01 04:38:58;;;;;;;1999.90;999.90;;;19.50;99.90;;;;;;5031168;28;20979;-71
2022/08/01 04:41:25;;;;;;;1999.90;999.90;;;19.40;99.90;;;;;;5030907;28;20508;-70
2022/08/01 04:43:54;;;;;;;1999.90;999.90;;;19.40;99.90;;;;;;5032473;28;20510;-70
2022/08/01 04:46:23;;;;;;;1999.90;999.90;;;19.40;99.90;;;;;;5032626;28;20461;-71
2022/08/01 04:48:50;;;;;;;1999.90;999.90;;;19.40;99.90;;;;;;5033027;28;20455;-72
2022/08/01 04:51:21;;;;;;;1999.90;999.90;;;19.40;99.90;;;;;;5035298;28;20521;-72
2022/08/01 04:53:50;;;;;;;1999.90;999.90;;;19.40;99.90;;;;;;5030160;28;20902;-72
2022/08/01 04:56:17;;;;;;;1999.90;999.90;;;19.30;99.90;;;;;;5030909;28;20460;-72
2022/08/01 04:58:44;;;;;;;1999.90;999.90;;;19.20;99.90;;;;;;5044979;28;20450;-72
2022/08/01 05:01:11;;;;;;;1999.90;999.90;;;19.30;99.90;;;;;;5054834;28;20443;-72
2022/08/01 05:03:40;;;;;;;1999.90;999.90;;;19.20;99.90;;;;;;5056673;28;20446;-72
2022/08/01 05:06:06;;;;;;;1999.90;999.90;;;19.30;99.90;;;;;;5056242;28;20499;-72
2022/08/01 05:08:33;;;;;;;1999.90;999.90;;;19.30;99.90;;;;;;5055206;28;20470;-72
2022/08/01 05:11:00;;;;;;;1999.90;999.90;;;19.40;99.90;;;;;;5055788;28;20860;-72
2022/08/01 05:13:27;;;;;;;1999.90;999.90;;;19.40;99.90;;;;;;5056536;28;20479;-72
2022/08/01 05:15:54;;;;;;;1999.90;999.90;;;19.40;99.90;;;;;;5056022;28;20871;-72
2022/08/01 05:18:21;;;;;;;1999.90;999.90;;;19.50;99.90;;;;;;5056444;28;20523;-72
2022/08/01 05:20:49;;;;;;;1999.90;999.90;;;19.60;99.90;;;;;;5056316;28;20446;-71
2022/08/01 05:23:16;;;;;;;1999.90;999.90;;;19.70;99.90;;;;;;5056704;28;20450;-72
2022/08/01 05:25:43;;;;;;;1999.90;999.90;;;19.80;99.90;;;;;;5056540;28;20531;-72
2022/08/01 05:28:09;;;;;;;1999.90;999.90;;;19.80;99.90;;;;;;5056283;28;20466;-71
2022/08/01 05:30:36;;;;;;;1999.90;999.90;;;19.90;99.90;;;;;;5056333;28;20944;-71
2022/08/01 05:33:03;;;;;;;1999.90;999.90;;;19.90;99.90;;;;;;5056104;28;20446;-71
2022/08/01 05:35:30;;;;;;;1999.90;999.90;;;19.90;99.90;;;;;;5055291;28;20445;-72
2022/08/01 05:37:58;;;;;;;1999.90;999.90;;;19.80;99.90;;;;;;5054483;28;20553;-72
2022/08/01 05:40:24;;;;;;;1999.90;999.90;;;19.80;99.90;;;;;;5055155;28;20472;-71
2022/08/01 05:42:51;;;;;;;1999.90;999.90;;;19.60;99.90;;;;;;5054669;28;21005;-70
2022/08/01 05:45:18;;;;;;;1999.90;999.90;;;19.50;99.90;;;;;;5053423;28;20999;-72
2022/08/01 05:47:44;;;;;;;1999.90;999.90;;;19.30;99.90;;;;;;5054195;28;20504;-72
2022/08/01 05:50:11;;;;;;;1999.90;999.90;;;19.30;99.90;;;;;;5053841;28;20464;-72
2022/08/01 05:52:38;;;;;;;1999.90;999.90;;;19.40;99.90;;;;;;5054712;28;20450;-71
2022/08/01 05:55:07;;;;;;;1999.90;999.90;;;19.50;99.90;;;;;;5054874;28;20451;-71
2022/08/01 05:57:34;;;;;;;1999.90;999.90;;;19.50;99.90;;;;;;5054485;28;20504;-70
2022/08/01 06:00:00;;;;;;;1999.90;999.90;;;19.50;99.90;;;;;;5054982;28;20826;-72
2022/08/01 06:02:27;;;;;;;1999.90;999.90;;;19.60;99.90;;;;;;5054295;28;20446;-71
2022/08/01 06:04:54;;;;;;;1999.90;999.90;;;19.60;99.90;;;;;;5053689;28;20569;-71
2022/08/01 06:07:20;;;;;;;1999.90;999.90;;;19.40;99.90;;;;;;5053284;28;20516;-71
2022/08/01 06:09:47;;;;;;;1999.90;999.90;;;19.20;99.90;;;;;;5053510;28;20454;-71
2022/08/01 06:12:15;;;;;;;1999.90;999.90;;;19.10;99.90;;;;;;5053130;28;20512;-71
2022/08/01 06:14:41;;;;;;;1999.90;999.90;;;19.10;99.90;;;;;;5053078;28;20434;-70
2022/08/01 06:17:08;;;;;;;1999.90;999.90;;;19.00;99.90;;;;;;5053295;28;20524;-71
2022/08/01 06:19:34;;;;;;;1999.90;999.90;;;18.90;99.90;;;;;;5053520;28;20979;-71
2022/08/01 06:22:01;;;;;;;1999.90;999.90;;;18.70;99.90;;;;;;5053188;28;20499;-71
2022/08/01 06:24:28;;;;;;;1999.90;999.90;;;18.70;99.90;;;;;;5052998;28;20570;-71
2022/08/01 06:26:54;;;;;;;1999.90;999.90;;;18.60;99.90;;;;;;5042639;28;21062;-71
2022/08/01 06:29:22;;;;;;;1999.90;999.90;;;18.60;99.90;;;;;;5035945;28;20496;-71
2022/08/01 06:31:49;;;;;;;1999.90;999.90;;;18.60;99.90;;;;;;5053170;28;20520;-71
2022/08/01 06:34:16;;;;;;;1999.90;999.90;;;18.60;99.90;;;;;;5029693;28;20467;-71
2022/08/01 06:36:42;;;;;;;1999.90;999.90;;;18.70;99.90;;;;;;5027867;28;21018;-71
2022/08/01 06:39:10;;;;;;;1999.90;999.90;;;18.80;99.90;;;;;;5028302;28;20472;-71
2022/08/01 06:41:36;;;;;;;1999.90;999.90;;;18.80;99.90;;;;;;5025630;28;20820;-71
2022/08/01 06:44:04;;;;;;;1999.90;999.90;;;19.00;99.90;;;;;;5030007;28;20521;-71
2022/08/01 06:46:32;;;;;;;1999.90;999.90;;;19.00;99.90;;;;;;5032262;28;20471;-72
2022/08/01 06:48:59;;;;;;;1999.90;999.90;;;19.10;99.90;;;;;;5032959;28;20455;-72
2022/08/01 06:51:25;;;;;;;1999.90;999.90;;;19.20;99.90;;;;;;5031451;28;20462;-74
2022/08/01 06:53:53;;;;;;;1999.90;999.90;;;19.30;99.90;;;;;;5029502;28;20459;-72
2022/08/01 06:56:20;;;;;;;1999.90;999.90;;;19.30;99.90;;;;;;5032097;28;20960;-71
2022/08/01 06:58:46;;;;;;;1999.90;999.90;;;19.30;99.90;;;;;;5031712;28;20452;-72
2022/08/01 07:01:13;;;;;;;1999.90;999.90;;;19.40;99.90;;;;;;5026254;28;20459;-72
2022/08/01 07:03:41;;;;;;;1999.90;999.90;;;19.50;99.90;;;;;;5029381;28;20548;-71
2022/08/01 07:06:08;;;;;;;1999.90;999.90;;;19.50;99.90;;;;;;5026682;28;20529;-70
2022/08/01 07:08:34;;;;;;;1999.90;999.90;;;19.60;99.90;;;;;;5029947;28;20463;-71
2022/08/01 07:11:01;;;;;;;1999.90;999.90;;;19.60;99.90;;;;;;5030487;28;20459;-71
2022/08/01 07:13:30;;;;;;;1999.90;999.90;;;19.60;99.90;;;;;;5031770;28;20467;-71
2022/08/01 07:15:57;;;;;;;1999.90;999.90;;;19.60;99.90;;;;;;5030012;28;20459;-72
2022/08/01 07:18:24;;;;;;;1999.90;999.90;;;19.60;99.90;;;;;;5033377;28;20505;-72
2022/08/01 07:20:52;;;;;;;1999.90;999.90;;;19.70;99.90;;;;;;5026251;28;20505;-74
2022/08/01 07:23:18;;;;;;;1999.90;999.90;;;19.70;99.90;;;;;;5035515;28;20443;-74
2022/08/01 07:25:45;;;;;;;1999.90;999.90;;;19.70;99.90;;;;;;5036559;28;20535;-74
2022/08/01 07:28:12;;;;;;;1999.90;999.90;;;19.70;99.90;;;;;;5028443;28;20510;-74
2022/08/01 07:30:40;;;;;;;1999.90;999.90;;;19.70;99.90;;;;;;5039211;28;20549;-74
2022/08/01 07:33:06;;;;;;;1999.90;999.90;;;19.70;99.90;;;;;;5033622;28;20870;-74
2022/08/01 07:35:33;;;;;;;1999.90;999.90;;;19.70;99.90;;;;;;5030956;28;20459;-74
2022/08/01 07:38:01;;;;;;;1999.90;999.90;;;19.70;99.90;;;;;;5025532;28;20569;-73
2022/08/01 07:40:28;;;;;;;1999.90;999.90;;;19.80;99.90;;;;;;5029326;28;20845;-73
2022/08/01 07:42:54;;;;;;;1999.90;999.90;;;19.80;99.90;;;;;;5028501;28;20486;-72
2022/08/01 07:45:21;;;;;;;1999.90;999.90;;;19.90;99.90;;;;;;5030310;28;20520;-74
2022/08/01 07:47:49;;;;;;;1999.90;999.90;;;20.20;99.90;;;;;;5029862;28;20495;-74
2022/08/01 07:50:16;;;;;;;1999.90;999.90;;;20.20;99.90;;;;;;5026203;28;20473;-74
2022/08/01 07:52:42;;;;;;;1999.90;999.90;;;20.30;99.90;;;;;;5029539;28;20542;-74
2022/08/01 07:55:12;;;;;;;1999.90;999.90;;;20.30;99.90;;;;;;5028782;28;20521;-73
2022/08/01 07:57:39;;;;;;;1999.90;999.90;;;20.00;99.90;;;;;;5018541;28;20529;-74
2022/08/01 08:00:08;;;;;;;1999.90;999.90;;;19.80;99.90;;;;;;5025995;28;20506;-74
2022/08/01 08:02:35;;;;;;;1999.90;999.90;;;19.70;99.90;;;;;;5026673;28;20463;-74
2022/08/01 08:05:01;;;;;;;1999.90;999.90;;;19.70;99.90;;;;;;5027012;28;20487;-74
2022/08/01 08:07:28;;;;;;;1999.90;999.90;;;19.70;99.90;;;;;;5028309;28;20482;-72
2022/08/01 08:09:55;;;;;;;1999.90;999.90;;;19.80;99.90;;;;;;5031078;28;20525;-73
2022/08/01 08:12:23;;;;;;;1999.90;999.90;;;19.80;99.90;;;;;;5031605;28;20459;-74
2022/08/01 08:14:49;;;;;;;1999.90;999.90;;;19.90;99.90;;;;;;5023707;28;20490;-72
2022/08/01 08:17:16;;;;;;;1999.90;999.90;;;20.10;99.90;;;;;;5021711;28;20486;-72
2022/08/01 08:19:42;;;;;;;1999.90;999.90;;;20.40;99.90;;;;;;5029862;28;20466;-72
2022/08/01 08:22:09;;;;;;;1999.90;999.90;;;20.50;99.90;;;;;;5026578;28;20455;-72
2022/08/01 08:24:37;;;;;;;1999.90;999.90;;;20.60;99.90;;;;;;5028588;28;20463;-74
2022/08/01 08:27:04;;;;;;;1999.90;999.90;;;20.60;99.90;;;;;;5028212;28;20486;-72
2022/08/01 08:29:33;;;;;;;1999.90;999.90;;;20.80;99.90;;;;;;5024150;28;20466;-71
2022/08/01 08:32:00;;;;;;;1999.90;999.90;;;21.10;99.90;;;;;;5025759;28;20470;-72
2022/08/01 08:34:28;;;;;;;1999.90;999.90;;;21.10;99.90;;;;;;5022435;28;20992;-71
2022/08/01 08:36:55;;;;;;;1999.90;999.90;;;21.00;99.90;;;;;;5029756;28;20474;-73
2022/08/01 08:39:23;;;;;;;1999.90;999.90;;;20.90;99.90;;;;;;5035714;28;20459;-71
2022/08/01 08:41:49;;;;;;;1999.90;999.90;;;20.90;99.90;;;;;;5044449;28;20489;-73
2022/08/01 08:44:17;;;;;;;1999.90;999.90;;;20.90;99.90;;;;;;5045622;28;21022;-74
2022/08/01 08:46:47;;;;;;;1999.90;999.90;;;21.00;99.90;;;;;;5025553;28;20486;-71
2022/08/01 08:49:19;;;;;;;1999.90;999.90;;;21.10;99.90;;;;;;5029711;28;20533;-71
2022/08/01 08:51:49;;;;;;;1999.90;999.90;;;21.30;99.90;;;;;;5034336;28;20459;-71
2022/08/01 08:54:16;;;;;;;1999.90;999.90;;;21.50;99.90;;;;;;5030658;28;20486;-71
2022/08/01 08:56:44;;;;;;;1999.90;999.90;;;21.80;99.90;;;;;;5032537;28;20479;-71
2022/08/01 08:59:13;;;;;;;1999.90;999.90;;;22.00;99.90;;;;;;5049605;28;20496;-70
2022/08/01 09:01:40;;;;;;;1999.90;999.90;;;22.00;99.90;;;;;;5039532;28;20466;-71
2022/08/01 09:04:08;;;;;;;1999.90;999.90;;;21.50;99.90;;;;;;5049756;28;20438;-71
2022/08/01 09:06:36;;;;;;;1999.90;999.90;;;20.80;99.90;;;;;;5033653;28;20545;-71
2022/08/01 09:09:03;;;;;;;1999.90;999.90;;;20.40;99.90;;;;;;5026922;28;20474;-71
2022/08/01 09:11:30;;;;;;;1999.90;999.90;;;20.00;99.90;;;;;;5031918;28;20459;-71
2022/08/01 09:14:08;;;;;;;1999.90;999.90;;;19.90;99.90;;;;;;5036047;28;20464;-71
2022/08/01 09:16:36;;;;;;;1999.90;999.90;;;19.60;99.90;;;;;;5029156;28;20616;-72
2022/08/01 09:19:13;;;;;;;1999.90;999.90;;;19.60;99.90;;;;;;5039234;28;20467;-71
2022/08/01 09:21:41;;;;;;;1999.90;999.90;;;19.70;99.90;;;;;;5034672;28;20888;-71
2022/08/01 09:24:16;;;;;;;1999.90;999.90;;;19.70;99.90;;;;;;5030114;28;20983;-71
2022/08/01 09:26:44;;;;;;;1999.90;999.90;;;19.70;99.90;;;;;;5031378;28;20561;-71
2022/08/01 09:29:19;;;;;;;1999.90;999.90;;;19.80;99.90;;;;;;5037556;28;20466;-71
2022/08/01 09:31:47;;;;;;;1999.90;999.90;;;19.70;99.90;;;;;;5025504;28;20530;-70
2022/08/01 09:34:16;;;;;;;1999.90;999.90;;;19.90;99.90;;;;;;5031811;28;20942;-71
2022/08/01 09:36:51;;;;;;;1999.90;999.90;;;20.20;99.90;;;;;;5044209;28;20475;-71
2022/08/01 09:39:19;;;;;;;1999.90;999.90;;;20.20;99.90;;;;;;5035394;28;20447;-72
2022/08/01 09:41:45;;;;;;;1999.90;999.90;;;20.60;99.90;;;;;;5036435;28;20486;-71
2022/08/01 09:44:12;;;;;;;1999.90;999.90;;;20.90;99.90;;;;;;5034330;28;20535;-74
2022/08/01 09:46:50;;;;;;;1999.90;999.90;;;21.20;99.90;;;;;;5031809;28;20996;-73
2022/08/01 09:49:28;;;;;;;1999.90;999.90;;;21.00;99.90;;;;;;5033241;28;20451;-71
2022/08/01 09:51:55;;;;;;;1999.90;999.90;;;21.00;99.90;;;;;;5035137;28;20451;-72
2022/08/01 09:54:30;;;;;;;1999.90;999.90;;;21.10;99.90;;;;;;5034798;28;20451;-72
2022/08/01 09:57:09;;;;;;;1999.90;999.90;;;20.90;99.90;;;;;;5034894;28;20469;-72
2022/08/01 09:59:37;;;;;;;1999.90;999.90;;;20.80;99.90;;;;;;5035308;28;20442;-71
2022/08/01 10:02:04;;;;;;;1999.90;999.90;;;20.90;99.90;;;;;;5032826;28;21009;-71
2022/08/01 10:04:32;;;;;;;1999.90;999.90;;;21.00;99.90;;;;;;5028811;28;20502;-71
2022/08/01 10:07:06;;;;;;;1999.90;999.90;;;21.10;99.90;;;;;;5032918;28;20491;-72
2022/08/01 10:09:35;;;;;;;1999.90;999.90;;;21.10;99.90;;;;;;5033860;28;20453;-72
2022/08/01 10:12:02;;;;;;;1999.90;999.90;;;21.10;99.90;;;;;;5031194;28;20467;-71
2022/08/01 10:14:30;;;;;;;1999.90;999.90;;;21.30;99.90;;;;;;5027025;28;20455;-71
2022/08/01 10:16:59;;;;;;;1999.90;999.90;;;21.30;99.90;;;;;;5026280;28;20480;-74
2022/08/01 10:19:27;;;;;;;1999.90;999.90;;;21.20;99.90;;;;;;5026784;28;20561;-71
2022/08/01 10:21:57;;;;;;;1999.90;999.90;;;21.20;99.90;;;;;;5030292;28;20505;-71
2022/08/01 10:24:24;;;;;;;1999.90;999.90;;;21.30;99.90;;;;;;5032376;28;20482;-71
2022/08/01 10:26:56;;;;;;;1999.90;999.90;;;21.50;99.90;;;;;;5029608;28;20544;-71
2022/08/01 10:29:25;;;;;;;1999.90;999.90;;;21.80;99.90;;;;;;5030763;28;20553;-71
2022/08/01 10:31:52;;;;;;;1999.90;999.90;;;21.80;99.90;;;;;;5031570;28;20463;-71
2022/08/01 10:34:21;;;;;;;1999.90;999.90;;;21.90;99.90;;;;;;5027514;28;20471;-70
2022/08/01 10:36:49;;;;;;;1999.90;999.90;;;21.90;99.90;;;;;;5029543;28;20474;-71
2022/08/01 10:39:18;;;;;;;1999.90;999.90;;;21.90;99.90;;;;;;5030789;28;20451;-71
2022/08/01 10:41:46;;;;;;;1999.90;999.90;;;21.90;99.90;;;;;;5030074;28;20455;-72
2022/08/01 10:44:12;;;;;;;1999.90;999.90;;;21.90;99.90;;;;;;5031121;28;20529;-71
2022/08/01 10:46:43;;;;;;;1999.90;999.90;;;22.10;99.90;;;;;;5035247;28;21066;-71
2022/08/01 10:49:13;;;;;;;1999.90;999.90;;;22.50;99.90;;;;;;5030530;28;21065;-71
2022/08/01 10:51:41;;;;;;;1999.90;999.90;;;22.70;99.90;;;;;;5039164;28;20521;-71
2022/08/01 10:54:09;;;;;;;1999.90;999.90;;;22.80;99.90;;;;;;5049818;28;20876;-71
2022/08/01 10:56:44;;;;;;;1999.90;999.90;;;23.10;99.90;;;;;;5036910;28;20479;-71
2022/08/01 10:59:16;;;;;;;1999.90;999.90;;;23.00;99.90;;;;;;5032390;28;20451;-71
2022/08/01 11:01:42;;;;;;;1999.90;999.90;;;23.00;99.90;;;;;;5032440;28;20443;-71
2022/08/01 11:04:10;;;;;;;1999.90;999.90;;;23.10;99.90;;;;;;5031065;28;20458;-71
2022/08/01 11:06:43;;;;;;;1999.90;999.90;;;23.00;99.90;;;;;;5031341;28;20483;-71
2022/08/01 11:09:38;;;;;;;1999.90;999.90;;;22.80;99.90;;;;;;5036566;28;20467;-71
2022/08/01 11:12:09;;;;;;;1999.90;999.90;;;22.10;99.90;;;;;;5031809;28;20474;-71
2022/08/01 11:15:15;;;;;;;1999.90;999.90;;;21.60;99.90;;;;;;5030713;28;20513;-71
2022/08/01 11:17:47;;;;;;;1999.90;999.90;;;21.40;99.90;;;;;;5023130;28;20566;-70
2022/08/01 11:20:16;;;;;;;1999.90;999.90;;;21.20;99.90;;;;;;5028811;28;20468;-71
2022/08/01 11:23:27;;;;;;;1999.90;999.90;;;21.30;99.90;;;;;;5051253;28;20439;-70
2022/08/01 11:26:24;;;;;;;1999.90;999.90;;;21.60;99.90;;;;;;5036845;28;20534;-70
2022/08/01 11:29:18;;;;;;;1999.90;999.90;;;21.90;99.90;;;;;;5026709;28;21042;-71
2022/08/01 11:31:45;;;;;;;1999.90;999.90;;;21.90;99.90;;;;;;5025693;28;20455;-71
2022/08/01 11:34:12;;;;;;;1999.90;999.90;;;21.80;99.90;;;;;;5030511;28;20486;-71
2022/08/01 11:36:39;;;;;;;1999.90;999.90;;;21.60;99.90;;;;;;5031423;28;20545;-71
2022/08/01 11:39:14;;;;;;;1999.90;999.90;;;21.50;99.90;;;;;;5030334;28;20467;-71
2022/08/01 11:41:41;;;;;;;1999.90;999.90;;;21.50;99.90;;;;;;5031067;28;20545;-71
2022/08/01 11:44:09;;;;;;;1999.90;999.90;;;21.40;99.90;;;;;;5030265;28;20477;-70
2022/08/01 11:47:01;;;;;;;1999.90;999.90;;;21.50;99.90;;;;;;5034446;28;20487;-71
2022/08/01 11:49:57;;;;;;;1999.90;999.90;;;21.50;99.90;;;;;;5033811;28;20882;-71
2022/08/01 11:52:27;;;;;;;1999.90;999.90;;;21.40;99.90;;;;;;5033058;28;20462;-71
2022/08/01 11:54:55;;;;;;;1999.90;999.90;;;21.50;99.90;;;;;;5030988;28;20516;-70
2022/08/01 11:57:24;;;;;;;1999.90;999.90;;;21.80;99.90;;;;;;5030984;28;21065;-71
2022/08/01 11:59:52;;;;;;;1999.90;999.90;;;21.90;99.90;;;;;;5038677;28;20455;-71
2022/08/01 12:02:25;;;;;;;1999.90;999.90;;;21.90;99.90;;;;;;5030127;28;20941;-71
2022/08/01 12:04:54;;;;;;;1999.90;999.90;;;21.90;99.90;;;;;;5031522;28;20443;-70
2022/08/01 12:07:22;;;;;;;1999.90;999.90;;;22.00;99.90;;;;;;5031028;28;20489;-71
2022/08/01 12:09:57;;;;;;;1999.90;999.90;;;22.20;99.90;;;;;;5031436;28;20447;-71